Time;durP1;ratioP1;P1;durP2;ratioP2;P2;SDS_P1;SDS_P2;PMS_P1;PMS_P2;Temp;Humidity;BMP_temperature;BMP_pressure;BME280_temperature;BME280_humidity;BME280_pressure;Samples;Min_cycle;Max_cycle;Signal;HPM_P1;HPM_P2
2022/06/25 00:01:19;;;;;;;1.23;1.23;;;;;;;;;;5072863;28;20263;-83
2022/06/25 00:03:47;;;;;;;1.42;1.33;;;;;;;;;;5073813;28;20279;-83
2022/06/25 00:06:15;;;;;;;1.95;1.40;;;;;;;;;;5074158;28;20283;-83
2022/06/25 00:08:44;;;;;;;2.70;1.60;;;;;;;;;;5074463;28;20287;-83
2022/06/25 00:12:31;;;;;;;1.25;1.25;;;;;;;;;;5074197;28;20247;-82
2022/06/25 00:14:05;;;;;;;1.13;1.13;;;;;;;;;;5073203;28;20227;-83
2022/06/25 00:16:33;;;;;;;2.25;1.70;;;;;;;;;;5074149;28;20211;-82
2022/06/25 00:19:00;;;;;;;1.08;1.05;;;;;;;;;;5073874;28;20292;-83
2022/06/25 00:21:28;;;;;;;1.75;1.65;;;;;;;;;;5073257;28;20340;-82
2022/06/25 00:23:55;;;;;;;1.65;1.42;;;;;;;;;;5072607;28;20283;-82
2022/06/25 00:26:23;;;;;;;1.50;1.40;;;;;;;;;;5072676;28;20196;-83
2022/06/25 00:28:50;;;;;;;1.33;1.27;;;;;;;;;;5073363;28;20296;-82
2022/06/25 00:31:19;;;;;;;1.20;1.10;;;;;;;;;;5073255;28;20678;-82
2022/06/25 00:33:47;;;;;;;1.10;1.10;;;;;;;;;;5072960;28;20740;-82
2022/06/25 00:36:14;;;;;;;1.02;1.00;;;;;;;;;;5074196;28;20284;-83
2022/06/25 00:38:42;;;;;;;0.80;0.80;;;;;;;;;;5073216;28;20231;-82
2022/06/25 00:41:10;;;;;;;1.92;1.10;;;;;;;;;;5073715;28;20256;-82
2022/06/25 00:43:40;;;;;;;0.73;0.73;;;;;;;;;;5072888;28;20280;-83
2022/06/25 00:46:08;;;;;;;1.30;1.20;;;;;;;;;;5075651;28;20292;-82
2022/06/25 00:48:37;;;;;;;0.80;0.80;;;;;;;;;;5076644;28;20232;-82
2022/06/25 00:51:15;;;;;;;0.75;0.75;;;;;;;;;;5075786;28;20255;-82
2022/06/25 00:53:45;;;;;;;1.00;1.00;;;;;;;;;;5074226;28;20796;-82
2022/06/25 00:56:15;;;;;;;1.92;1.83;;;;;;;;;;5075303;28;20207;-82
2022/06/25 00:58:45;;;;;;;2.95;1.50;;;;;;;;;;5074591;28;20221;-82
2022/06/25 01:01:15;;;;;;;1.15;1.15;;;;;;;;;;5074177;28;20308;-82
2022/06/25 01:03:44;;;;;;;1.10;1.10;;;;;;;;;;5072870;28;20203;-83
2022/06/25 01:06:12;;;;;;;1.23;1.13;;;;;;;;;;5073267;28;20287;-82
2022/06/25 01:08:39;;;;;;;1.15;1.05;;;;;;;;;;5073694;28;20296;-82
2022/06/25 01:11:07;;;;;;;1.40;1.30;;;;;;;;;;5072900;28;20308;-83
2022/06/25 01:13:35;;;;;;;1.33;1.25;;;;;;;;;;5075518;28;20201;-82
2022/06/25 01:16:03;;;;;;;2.28;1.23;;;;;;;;;;5077204;28;20287;-83
2022/06/25 01:18:31;;;;;;;1.00;1.00;;;;;;;;;;5076882;28;20205;-82
2022/06/25 01:21:01;;;;;;;1.00;1.00;;;;;;;;;;5103609;23;20277;-78
2022/06/25 01:23:32;;;;;;;0.70;0.70;;;;;;;;;;5092844;28;20265;-77
2022/06/25 01:26:00;;;;;;;0.90;0.90;;;;;;;;;;5075109;28;20703;-77
2022/06/25 01:28:27;;;;;;;1.00;1.00;;;;;;;;;;5075082;28;20296;-78
2022/06/25 01:30:55;;;;;;;1.13;1.02;;;;;;;;;;5066524;28;20226;-78
2022/06/25 01:33:22;;;;;;;2.67;1.27;;;;;;;;;;5054515;28;20293;-77
2022/06/25 01:35:50;;;;;;;1.42;1.33;;;;;;;;;;5054752;28;20739;-78
2022/06/25 01:38:17;;;;;;;1.05;1.05;;;;;;;;;;5054984;28;20297;-78
2022/06/25 01:40:46;;;;;;;1.17;1.13;;;;;;;;;;5054713;28;20316;-78
2022/06/25 01:43:13;;;;;;;1.00;1.00;;;;;;;;;;5054435;28;20658;-78
2022/06/25 01:45:41;;;;;;;2.13;1.10;;;;;;;;;;5055324;28;20617;-78
2022/06/25 01:48:10;;;;;;;1.10;1.10;;;;;;;;;;5054771;28;20670;-76
2022/06/25 01:50:38;;;;;;;1.30;1.20;;;;;;;;;;5054777;28;20226;-78
2022/06/25 01:53:05;;;;;;;1.33;1.20;;;;;;;;;;5071016;28;20296;-78
2022/06/25 01:55:33;;;;;;;1.40;1.30;;;;;;;;;;5075303;28;20312;-77
2022/06/25 01:58:02;;;;;;;1.30;1.20;;;;;;;;;;5075198;28;20242;-76
2022/06/25 02:00:32;;;;;;;1.10;1.10;;;;;;;;;;5075416;28;20312;-78
2022/06/25 02:03:01;;;;;;;1.83;1.58;;;;;;;;;;5073874;28;20701;-78
2022/06/25 02:08:17;;;;;;;2.10;1.88;;;;;;;;;;5075079;28;20204;-79
2022/06/25 02:10:45;;;;;;;1.67;1.58;;;;;;;;;;5075245;28;20228;-78
2022/06/25 02:13:14;;;;;;;2.38;1.50;;;;;;;;;;5074507;28;20748;-78
2022/06/25 02:15:42;;;;;;;1.95;1.85;;;;;;;;;;5074719;28;20221;-78
2022/06/25 02:18:10;;;;;;;1.85;1.73;;;;;;;;;;5074588;28;20299;-77
2022/06/25 02:20:39;;;;;;;2.10;1.60;;;;;;;;;;5074837;28;20577;-78
2022/06/25 02:23:07;;;;;;;1.58;1.48;;;;;;;;;;5073944;28;20208;-78
2022/06/25 02:25:35;;;;;;;1.77;1.50;;;;;;;;;;5074770;28;20679;-78
2022/06/25 02:28:03;;;;;;;2.13;1.88;;;;;;;;;;5075020;28;20289;-77
2022/06/25 02:30:32;;;;;;;2.13;2.03;;;;;;;;;;5074417;28;20225;-78
2022/06/25 02:32:59;;;;;;;2.00;1.88;;;;;;;;;;5074574;28;20243;-78
2022/06/25 02:35:27;;;;;;;2.10;1.98;;;;;;;;;;5074501;28;20779;-79
2022/06/25 02:37:54;;;;;;;4.40;2.40;;;;;;;;;;5074402;28;20304;-78
2022/06/25 02:40:22;;;;;;;2.55;2.35;;;;;;;;;;5075608;28;20327;-76
2022/06/25 02:42:50;;;;;;;2.42;2.22;;;;;;;;;;5073300;28;20288;-78
2022/06/25 02:45:17;;;;;;;2.10;2.00;;;;;;;;;;5074074;28;20627;-79
2022/06/25 02:47:46;;;;;;;1.60;1.50;;;;;;;;;;5074778;28;20661;-78
2022/06/25 02:50:14;;;;;;;2.15;1.92;;;;;;;;;;5073922;28;20311;-78
2022/06/25 02:52:41;;;;;;;1.90;1.80;;;;;;;;;;5072265;28;20382;-78
2022/06/25 02:55:10;;;;;;;1.40;1.30;;;;;;;;;;5073844;28;20312;-78
2022/06/25 03:00:22;;;;;;;1.20;1.20;;;;;;;;;;5074268;28;20350;-77
2022/06/25 03:02:51;;;;;;;1.80;1.40;;;;;;;;;;5074089;28;20196;-78
2022/06/25 03:05:19;;;;;;;1.60;1.50;;;;;;;;;;5074132;28;20289;-78
2022/06/25 03:07:46;;;;;;;1.80;1.67;;;;;;;;;;5074002;28;20291;-78
2022/06/25 03:10:14;;;;;;;2.15;1.67;;;;;;;;;;5073754;28;20312;-78
2022/06/25 03:12:41;;;;;;;1.77;1.67;;;;;;;;;;5073250;28;20268;-78
2022/06/25 03:15:10;;;;;;;1.98;1.88;;;;;;;;;;5074714;28;20220;-78
2022/06/25 03:17:37;;;;;;;1.45;1.35;;;;;;;;;;5074133;28;20287;-78
2022/06/25 03:20:08;;;;;;;4.03;2.22;;;;;;;;;;5073690;28;20296;-78
2022/06/25 03:22:36;;;;;;;1.35;1.30;;;;;;;;;;5073427;28;20700;-77
2022/06/25 03:25:05;;;;;;;1.77;1.45;;;;;;;;;;5074149;28;20760;-78
2022/06/25 03:27:33;;;;;;;1.60;1.50;;;;;;;;;;5074061;28;20288;-76
2022/06/25 03:30:00;;;;;;;1.30;1.30;;;;;;;;;;5073777;28;20291;-77
2022/06/25 03:32:28;;;;;;;1.63;1.55;;;;;;;;;;5072873;28;20291;-77
2022/06/25 03:34:55;;;;;;;3.10;1.70;;;;;;;;;;5072700;28;20205;-76
2022/06/25 03:37:24;;;;;;;2.63;2.42;;;;;;;;;;5072565;28;20776;-78
2022/06/25 03:39:52;;;;;;;1.42;1.33;;;;;;;;;;5074016;28;20209;-78
2022/06/25 03:42:19;;;;;;;2.15;2.05;;;;;;;;;;5073506;28;20308;-78
2022/06/25 03:44:47;;;;;;;1.77;1.67;;;;;;;;;;5072531;28;20287;-79
2022/06/25 03:47:14;;;;;;;1.60;1.50;;;;;;;;;;5072551;28;20236;-78
2022/06/25 03:49:42;;;;;;;1.80;1.30;;;;;;;;;;5074165;28;20651;-78
2022/06/25 03:52:09;;;;;;;2.08;1.98;;;;;;;;;;5071602;28;20225;-77
2022/06/25 03:54:38;;;;;;;1.23;1.23;;;;;;;;;;5073591;28;20232;-78
2022/06/25 03:57:06;;;;;;;1.98;1.20;;;;;;;;;;5073355;28;20609;-78
2022/06/25 03:59:34;;;;;;;0.95;0.90;;;;;;;;;;5072912;28;20303;-77
2022/06/25 04:02:01;;;;;;;1.52;1.42;;;;;;;;;;5072758;28;20312;-77
2022/06/25 04:04:29;;;;;;;0.90;0.90;;;;;;;;;;5073254;28;20744;-78
2022/06/25 04:06:56;;;;;;;1.40;1.30;;;;;;;;;;5073526;28;20228;-78
2022/06/25 04:09:24;;;;;;;1.30;1.20;;;;;;;;;;5073392;28;20638;-77
2022/06/25 04:11:53;;;;;;;1.30;1.30;;;;;;;;;;5072703;28;20384;-78
2022/06/25 04:14:20;;;;;;;1.20;1.10;;;;;;;;;;5073111;28;20236;-77
2022/06/25 04:16:48;;;;;;;2.25;1.27;;;;;;;;;;5073080;28;20758;-78
2022/06/25 04:19:15;;;;;;;1.83;1.73;;;;;;;;;;5073093;28;20288;-78
2022/06/25 04:21:47;;;;;;;2.17;1.45;;;;;;;;;;5072081;28;20236;-78
2022/06/25 04:24:15;;;;;;;1.38;1.30;;;;;;;;;;5073389;28;20203;-78
2022/06/25 04:26:42;;;;;;;1.35;1.25;;;;;;;;;;5073350;28;20198;-77
2022/06/25 04:29:10;;;;;;;1.52;1.45;;;;;;;;;;5073033;28;20211;-78
2022/06/25 04:31:39;;;;;;;1.67;1.58;;;;;;;;;;5072441;28;20933;-78
2022/06/25 04:34:07;;;;;;;1.63;1.52;;;;;;;;;;5073140;28;20205;-77
2022/06/25 04:36:35;;;;;;;1.92;1.83;;;;;;;;;;5072698;28;20231;-77
2022/06/25 04:39:02;;;;;;;1.65;1.55;;;;;;;;;;5072614;28;20747;-77
2022/06/25 04:41:30;;;;;;;1.20;1.20;;;;;;;;;;5072558;28;20231;-78
2022/06/25 04:43:57;;;;;;;1.67;1.58;;;;;;;;;;5072186;28;20344;-78
2022/06/25 04:46:26;;;;;;;2.30;1.52;;;;;;;;;;5073208;28;20642;-78
2022/06/25 04:48:54;;;;;;;1.70;1.60;;;;;;;;;;5075392;28;20196;-78
2022/06/25 04:51:21;;;;;;;1.70;1.60;;;;;;;;;;5075832;28;20256;-78
2022/06/25 04:53:57;;;;;;;1.25;1.23;;;;;;;;;;5076313;28;20258;-76
2022/06/25 04:56:26;;;;;;;1.65;1.55;;;;;;;;;;5076953;28;20221;-79
2022/06/25 04:58:54;;;;;;;1.08;1.08;;;;;;;;;;5077274;28;20207;-78
2022/06/25 05:01:22;;;;;;;2.17;1.98;;;;;;;;;;5076879;28;20313;-78
2022/06/25 05:03:51;;;;;;;2.03;1.92;;;;;;;;;;5076707;28;20216;-77
2022/06/25 05:06:18;;;;;;;1.67;1.58;;;;;;;;;;5076999;28;20232;-78
2022/06/25 05:08:46;;;;;;;1.80;1.67;;;;;;;;;;5076661;28;20227;-79
2022/06/25 05:11:13;;;;;;;1.48;1.38;;;;;;;;;;5076770;28;20267;-78
2022/06/25 05:13:41;;;;;;;2.55;1.65;;;;;;;;;;5076006;28;20258;-79
2022/06/25 05:16:08;;;;;;;1.60;1.50;;;;;;;;;;5076308;28;20240;-78
2022/06/25 05:18:36;;;;;;;1.38;1.27;;;;;;;;;;5076527;28;20370;-78
2022/06/25 05:21:05;;;;;;;1.27;1.27;;;;;;;;;;5076343;28;20259;-77
2022/06/25 05:23:32;;;;;;;4.72;1.70;;;;;;;;;;5075842;28;20201;-78
2022/06/25 05:26:00;;;;;;;1.77;1.67;;;;;;;;;;5076593;28;20200;-78
2022/06/25 05:28:27;;;;;;;1.90;1.60;;;;;;;;;;5076212;28;20792;-78
2022/06/25 05:30:55;;;;;;;2.13;2.03;;;;;;;;;;5076238;28;20252;-78
2022/06/25 05:33:22;;;;;;;2.20;2.00;;;;;;;;;;5075345;28;20235;-78
2022/06/25 05:35:50;;;;;;;2.10;1.95;;;;;;;;;;5076206;28;20287;-78
2022/06/25 05:38:19;;;;;;;2.25;1.77;;;;;;;;;;5075522;28;20231;-77
2022/06/25 05:40:46;;;;;;;3.08;1.52;;;;;;;;;;5076687;28;20709;-82
2022/06/25 05:43:14;;;;;;;1.90;1.80;;;;;;;;;;5077595;28;20266;-81
2022/06/25 05:45:41;;;;;;;1.95;1.85;;;;;;;;;;5077291;28;20285;-82
2022/06/25 05:48:09;;;;;;;1.48;1.38;;;;;;;;;;5077721;28;20288;-82
2022/06/25 05:50:37;;;;;;;3.78;1.55;;;;;;;;;;5078115;28;20216;-81
2022/06/25 05:53:04;;;;;;;1.60;1.50;;;;;;;;;;5076715;28;20293;-82
2022/06/25 05:55:34;;;;;;;1.50;1.40;;;;;;;;;;5078266;28;20587;-82
2022/06/25 05:58:01;;;;;;;1.50;1.40;;;;;;;;;;5078741;28;20235;-82
2022/06/25 06:00:29;;;;;;;1.13;0.98;;;;;;;;;;5079047;28;20716;-82
2022/06/25 06:02:56;;;;;;;1.70;1.60;;;;;;;;;;5077726;28;20283;-81
2022/06/25 06:05:24;;;;;;;1.65;1.55;;;;;;;;;;5079281;28;20578;-82
2022/06/25 06:07:51;;;;;;;1.65;1.55;;;;;;;;;;5077899;28;20749;-82
2022/06/25 06:10:19;;;;;;;1.25;1.13;;;;;;;;;;5078697;28;20308;-83
2022/06/25 06:12:48;;;;;;;1.27;1.23;;;;;;;;;;5076691;28;20661;-81
2022/06/25 06:15:15;;;;;;;1.38;1.27;;;;;;;;;;5077735;28;20240;-82
2022/06/25 06:17:43;;;;;;;1.98;1.75;;;;;;;;;;5076622;28;20313;-83
2022/06/25 06:20:11;;;;;;;1.85;1.67;;;;;;;;;;5076015;28;20272;-83
2022/06/25 06:22:38;;;;;;;1.45;1.35;;;;;;;;;;5075500;28;20291;-82
2022/06/25 06:25:07;;;;;;;1.45;1.35;;;;;;;;;;5076327;28;20307;-82
2022/06/25 06:27:35;;;;;;;1.35;1.35;;;;;;;;;;5075253;28;20288;-82
2022/06/25 06:30:08;;;;;;;1.50;1.40;;;;;;;;;;5075092;28;20272;-82
2022/06/25 06:32:36;;;;;;;1.40;1.40;;;;;;;;;;5074172;28;20216;-83
2022/06/25 06:35:03;;;;;;;1.13;1.00;;;;;;;;;;5074712;28;20291;-83
2022/06/25 06:37:31;;;;;;;1.55;1.45;;;;;;;;;;5074796;28;20316;-82
2022/06/25 06:39:58;;;;;;;1.30;1.30;;;;;;;;;;5074261;28;20243;-82
2022/06/25 06:42:26;;;;;;;1.10;1.10;;;;;;;;;;5074167;28;20642;-81
2022/06/25 06:44:54;;;;;;;1.20;1.20;;;;;;;;;;5068331;28;20243;-81
2022/06/25 06:47:23;;;;;;;1.75;1.20;;;;;;;;;;5054732;28;20220;-82
2022/06/25 06:49:50;;;;;;;1.50;1.40;;;;;;;;;;5054948;28;20307;-82
2022/06/25 06:52:18;;;;;;;1.63;1.52;;;;;;;;;;5063719;28;20287;-82
2022/06/25 06:54:45;;;;;;;1.48;1.38;;;;;;;;;;5073772;28;20296;-82
2022/06/25 06:57:13;;;;;;;1.67;1.52;;;;;;;;;;5073637;28;20287;-82
2022/06/25 06:59:41;;;;;;;1.20;1.10;;;;;;;;;;5074162;28;20209;-82
2022/06/25 07:02:08;;;;;;;1.50;1.40;;;;;;;;;;5072983;28;20228;-82
2022/06/25 07:04:37;;;;;;;1.10;1.10;;;;;;;;;;5074229;28;20237;-83
2022/06/25 07:07:05;;;;;;;1.58;1.48;;;;;;;;;;5073698;28;20300;-82
2022/06/25 07:09:32;;;;;;;2.20;1.52;;;;;;;;;;5073015;28;20205;-83
2022/06/25 07:12:00;;;;;;;3.83;1.58;;;;;;;;;;5053707;28;20249;-83
2022/06/25 07:14:27;;;;;;;1.85;1.58;;;;;;;;;;5055575;28;20201;-84
2022/06/25 07:16:55;;;;;;;1.17;1.17;;;;;;;;;;5053404;28;20205;-84
2022/06/25 07:19:22;;;;;;;2.10;1.45;;;;;;;;;;5055379;28;20660;-85
2022/06/25 07:21:52;;;;;;;1.60;1.50;;;;;;;;;;5085832;23;20339;-79
2022/06/25 07:24:19;;;;;;;1.75;1.30;;;;;;;;;;5063295;28;20233;-81
2022/06/25 07:26:46;;;;;;;1.38;1.27;;;;;;;;;;5053094;28;20237;-81
2022/06/25 07:29:14;;;;;;;1.40;1.30;;;;;;;;;;5052235;28;20201;-81
2022/06/25 07:31:42;;;;;;;1.33;1.20;;;;;;;;;;5041191;28;20309;-80
2022/06/25 07:34:09;;;;;;;1.20;1.20;;;;;;;;;;5031741;28;20570;-80
2022/06/25 07:36:37;;;;;;;1.52;1.42;;;;;;;;;;5032214;28;20234;-80
2022/06/25 07:39:05;;;;;;;1.65;1.55;;;;;;;;;;5032817;28;20228;-81
2022/06/25 07:41:33;;;;;;;1.40;1.30;;;;;;;;;;5032836;28;20257;-81
2022/06/25 07:44:00;;;;;;;1.30;1.20;;;;;;;;;;5031618;28;20293;-80
2022/06/25 07:46:28;;;;;;;1.02;1.02;;;;;;;;;;5032437;28;20207;-81
2022/06/25 07:48:55;;;;;;;1.20;1.10;;;;;;;;;;5031463;28;20717;-80
2022/06/25 07:54:09;;;;;;;1.27;1.20;;;;;;;;;;5052800;28;20212;-80
2022/06/25 07:56:37;;;;;;;1.00;1.00;;;;;;;;;;5052285;28;20235;-80
2022/06/25 07:59:05;;;;;;;1.10;1.10;;;;;;;;;;5051703;28;20320;-80
2022/06/25 08:01:32;;;;;;;2.85;1.55;;;;;;;;;;5051733;28;20229;-80
2022/06/25 08:04:00;;;;;;;1.60;1.50;;;;;;;;;;5052387;28;20248;-80
2022/06/25 08:06:28;;;;;;;1.25;1.20;;;;;;;;;;5052213;28;20205;-80
2022/06/25 08:08:56;;;;;;;3.60;1.00;;;;;;;;;;5051887;28;20284;-80
2022/06/25 08:11:25;;;;;;;1.10;1.10;;;;;;;;;;5052500;28;20251;-80
2022/06/25 08:13:52;;;;;;;1.30;1.20;;;;;;;;;;5051581;28;20696;-80
2022/06/25 08:16:21;;;;;;;1.13;1.00;;;;;;;;;;5051545;28;20197;-80
2022/06/25 08:18:49;;;;;;;1.27;1.10;;;;;;;;;;5052280;28;20225;-80
2022/06/25 08:21:16;;;;;;;1.33;1.33;;;;;;;;;;5053890;28;20725;-80
2022/06/25 08:23:44;;;;;;;1.67;1.02;;;;;;;;;;5058061;28;20204;-80
2022/06/25 08:26:11;;;;;;;0.95;0.95;;;;;;;;;;5058771;28;20300;-80
2022/06/25 08:28:40;;;;;;;1.05;1.00;;;;;;;;;;5058481;28;20209;-80
2022/06/25 08:31:08;;;;;;;1.40;1.30;;;;;;;;;;5058222;28;20306;-80
2022/06/25 08:33:35;;;;;;;1.40;1.30;;;;;;;;;;5057411;28;20240;-80
2022/06/25 08:36:04;;;;;;;1.10;1.10;;;;;;;;;;5058144;28;20288;-79
2022/06/25 08:38:31;;;;;;;1.00;1.00;;;;;;;;;;5058959;28;20228;-80
2022/06/25 08:41:00;;;;;;;1.10;1.10;;;;;;;;;;5058067;28;20225;-80
2022/06/25 08:43:28;;;;;;;0.90;0.90;;;;;;;;;;5058100;28;20301;-79
2022/06/25 08:45:57;;;;;;;0.90;0.90;;;;;;;;;;5058204;28;20209;-80
2022/06/25 08:48:30;;;;;;;1.35;1.30;;;;;;;;;;5058460;28;20197;-80
2022/06/25 08:50:58;;;;;;;1.20;1.02;;;;;;;;;;5058373;28;20313;-77
2022/06/25 08:53:27;;;;;;;0.90;0.90;;;;;;;;;;5057163;28;20294;-77
2022/06/25 08:55:56;;;;;;;0.90;0.90;;;;;;;;;;5058366;28;20201;-77
2022/06/25 08:58:23;;;;;;;0.85;0.85;;;;;;;;;;5057769;28;20267;-76
2022/06/25 09:00:52;;;;;;;0.90;0.90;;;;;;;;;;5057469;28;20261;-77
2022/06/25 09:03:20;;;;;;;1.45;1.00;;;;;;;;;;5057978;28;20205;-77
2022/06/25 09:05:48;;;;;;;0.95;0.95;;;;;;;;;;5057981;28;20670;-77
2022/06/25 09:08:16;;;;;;;1.00;1.00;;;;;;;;;;5058310;28;20307;-78
2022/06/25 09:10:46;;;;;;;1.20;1.10;;;;;;;;;;5057942;28;20580;-77
2022/06/25 09:13:15;;;;;;;1.33;1.20;;;;;;;;;;5056903;28;20288;-77
2022/06/25 09:15:45;;;;;;;1.63;1.50;;;;;;;;;;5057871;28;20193;-77
2022/06/25 09:18:15;;;;;;;1.15;1.15;;;;;;;;;;5057995;28;20266;-77
2022/06/25 09:21:01;;;;;;;0.75;0.75;;;;;;;;;;5057837;28;20225;-76
2022/06/25 09:23:29;;;;;;;1.25;1.25;;;;;;;;;;5037165;28;20202;-76
2022/06/25 09:26:06;;;;;;;1.00;0.88;;;;;;;;;;5037847;28;20202;-77
2022/06/25 09:28:37;;;;;;;1.00;1.00;;;;;;;;;;5037931;28;20706;-77
2022/06/25 09:31:05;;;;;;;1.13;1.13;;;;;;;;;;5037791;28;20412;-76
2022/06/25 09:33:34;;;;;;;1.35;1.25;;;;;;;;;;5034558;28;20323;-77
2022/06/25 09:36:04;;;;;;;1.40;1.30;;;;;;;;;;5034502;28;20209;-76
2022/06/25 09:38:32;;;;;;;1.05;1.05;;;;;;;;;;5034542;28;20697;-76
2022/06/25 09:41:01;;;;;;;1.48;1.38;;;;;;;;;;5034542;28;20236;-77
2022/06/25 09:43:35;;;;;;;1.25;1.10;;;;;;;;;;5032847;28;20293;-77
2022/06/25 09:46:06;;;;;;;1.10;1.10;;;;;;;;;;5034086;28;20292;-78
2022/06/25 09:48:36;;;;;;;1.30;1.20;;;;;;;;;;5035056;28;20293;-78
2022/06/25 09:51:10;;;;;;;1.00;1.00;;;;;;;;;;5035620;28;20301;-78
2022/06/25 09:53:47;;;;;;;1.80;1.52;;;;;;;;;;5054103;28;20205;-77
2022/06/25 09:56:16;;;;;;;1.20;1.20;;;;;;;;;;5053920;28;20202;-77
2022/06/25 09:58:45;;;;;;;1.83;1.73;;;;;;;;;;5053415;28;20584;-77
2022/06/25 10:01:16;;;;;;;1.40;1.30;;;;;;;;;;5054385;28;20232;-77
2022/06/25 10:03:44;;;;;;;1.90;1.30;;;;;;;;;;5054258;28;20201;-77
2022/06/25 10:06:15;;;;;;;2.55;1.40;;;;;;;;;;5055692;28;20207;-77
2022/06/25 10:08:44;;;;;;;1.20;1.20;;;;;;;;;;5055160;28;20205;-78
2022/06/25 10:11:11;;;;;;;1.60;1.50;;;;;;;;;;5053901;28;20217;-77
2022/06/25 10:13:39;;;;;;;1.85;1.48;;;;;;;;;;5053432;28;20201;-77
2022/06/25 10:16:07;;;;;;;1.55;1.45;;;;;;;;;;5053963;28;20229;-77
2022/06/25 10:18:36;;;;;;;1.35;1.35;;;;;;;;;;5054060;28;20623;-77
2022/06/25 10:21:04;;;;;;;1.58;1.48;;;;;;;;;;5053602;28;20228;-78
2022/06/25 10:23:33;;;;;;;1.17;1.17;;;;;;;;;;5052971;28;20292;-77
2022/06/25 10:26:00;;;;;;;2.00;1.10;;;;;;;;;;5053662;28;20202;-77
2022/06/25 10:28:29;;;;;;;1.85;1.27;;;;;;;;;;5053185;28;20233;-77
2022/06/25 10:30:58;;;;;;;1.50;1.40;;;;;;;;;;5053779;28;20229;-82
2022/06/25 10:33:31;;;;;;;1.70;1.60;;;;;;;;;;5052703;28;20669;-77
2022/06/25 10:36:04;;;;;;;1.17;1.17;;;;;;;;;;5053616;28;20198;-77
2022/06/25 10:38:33;;;;;;;1.15;1.15;;;;;;;;;;5053565;28;20728;-77
2022/06/25 10:42:58;;;;;;;1.75;1.58;;;;;;;;;;5053207;28;20272;-78
2022/06/25 10:43:50;;;;;;;1.48;1.38;;;;;;;;;;5052244;28;20666;-77
2022/06/25 10:46:29;;;;;;;1.77;1.67;;;;;;;;;;5052438;28;20646;-77
2022/06/25 10:49:00;;;;;;;1.70;1.60;;;;;;;;;;5053527;28;20204;-77
2022/06/25 10:51:40;;;;;;;3.20;1.85;;;;;;;;;;5053120;28;20221;-78
2022/06/25 10:54:16;;;;;;;6.20;1.40;;;;;;;;;;5053301;28;20284;-77
2022/06/25 10:56:45;;;;;;;1.52;1.42;;;;;;;;;;5053406;28;20776;-77
2022/06/25 10:59:46;;;;;;;5.22;1.70;;;;;;;;;;5052290;28;20202;-78
2022/06/25 11:02:15;;;;;;;1.38;1.30;;;;;;;;;;5052589;28;20656;-77
2022/06/25 11:04:50;;;;;;;1.33;1.25;;;;;;;;;;5053441;28;20213;-78
2022/06/25 11:07:19;;;;;;;2.25;1.27;;;;;;;;;;5053491;28;20756;-79
2022/06/25 11:09:57;;;;;;;1.40;1.30;;;;;;;;;;5053430;28;20202;-78
2022/06/25 11:12:27;;;;;;;1.83;1.45;;;;;;;;;;5052550;28;20232;-78
2022/06/25 11:15:03;;;;;;;1.50;1.40;;;;;;;;;;5053346;28;20206;-78
2022/06/25 11:17:31;;;;;;;1.20;1.10;;;;;;;;;;5053050;28;20241;-77
2022/06/25 11:20:06;;;;;;;1.85;1.40;;;;;;;;;;5052297;28;20225;-78
2022/06/25 11:22:34;;;;;;;1.65;1.55;;;;;;;;;;5051882;28;20233;-77
2022/06/25 11:30:33;;;;;;;1.30;1.20;;;;;;;;;;5052703;28;20279;-77
2022/06/25 11:33:03;;;;;;;1.77;1.65;;;;;;;;;;5051303;28;20560;-77
2022/06/25 11:35:40;;;;;;;1.48;1.38;;;;;;;;;;5052344;28;20204;-77
2022/06/25 11:38:15;;;;;;;1.92;1.20;;;;;;;;;;5043963;28;20198;-77
2022/06/25 11:40:45;;;;;;;1.27;1.17;;;;;;;;;;5048956;28;20225;-77
2022/06/25 11:43:14;;;;;;;1.50;1.40;;;;;;;;;;5051082;28;20292;-77
2022/06/25 11:45:52;;;;;;;1.67;1.58;;;;;;;;;;5050861;28;20308;-77
2022/06/25 11:48:20;;;;;;;1.70;1.60;;;;;;;;;;5052271;28;20280;-77
2022/06/25 11:50:47;;;;;;;1.33;1.23;;;;;;;;;;5051915;28;20226;-77
2022/06/25 11:53:16;;;;;;;1.25;1.25;;;;;;;;;;5051148;28;20296;-77
2022/06/25 11:55:57;;;;;;;1.42;1.33;;;;;;;;;;5051545;28;20284;-77
2022/06/25 11:58:26;;;;;;;1.30;1.25;;;;;;;;;;5052048;28;20205;-77
2022/06/25 12:00:57;;;;;;;1.17;1.17;;;;;;;;;;5051234;28;20316;-77
2022/06/25 12:03:25;;;;;;;1.60;1.50;;;;;;;;;;5051424;28;20201;-76
2022/06/25 12:05:53;;;;;;;1.88;1.55;;;;;;;;;;5051734;28;20206;-77
2022/06/25 12:08:21;;;;;;;1.30;1.30;;;;;;;;;;5051770;28;20295;-77
2022/06/25 12:10:51;;;;;;;1.00;1.00;;;;;;;;;;5051607;28;20224;-77
2022/06/25 12:13:19;;;;;;;1.38;1.27;;;;;;;;;;5051002;28;20202;-77
2022/06/25 12:15:47;;;;;;;1.50;1.40;;;;;;;;;;5051988;28;20225;-77
2022/06/25 12:18:15;;;;;;;2.78;1.48;;;;;;;;;;5050214;28;20288;-77
2022/06/25 12:20:54;;;;;;;1.83;1.73;;;;;;;;;;5046412;28;20308;-76
2022/06/25 12:23:22;;;;;;;1.65;1.55;;;;;;;;;;5050346;28;20205;-77
2022/06/25 12:25:51;;;;;;;1.55;1.45;;;;;;;;;;5051027;28;20229;-77
2022/06/25 12:28:25;;;;;;;1.83;1.73;;;;;;;;;;5051411;28;20292;-76
2022/06/25 12:30:52;;;;;;;1.13;1.13;;;;;;;;;;5049926;28;20712;-77
2022/06/25 12:33:20;;;;;;;1.83;1.70;;;;;;;;;;5050352;28;20259;-77
2022/06/25 12:35:48;;;;;;;1.27;1.23;;;;;;;;;;5047514;28;20208;-77
2022/06/25 12:38:16;;;;;;;1.45;1.35;;;;;;;;;;5047226;28;20205;-77
2022/06/25 12:40:45;;;;;;;1.13;1.13;;;;;;;;;;5051069;28;20241;-77
2022/06/25 12:43:16;;;;;;;1.20;1.20;;;;;;;;;;5050355;28;20212;-77
2022/06/25 12:45:46;;;;;;;1.10;1.10;;;;;;;;;;5050877;28;20210;-77
2022/06/25 12:48:25;;;;;;;1.30;1.30;;;;;;;;;;5051179;28;20205;-77
2022/06/25 12:50:52;;;;;;;1.60;1.50;;;;;;;;;;5050943;28;20701;-77
2022/06/25 12:53:20;;;;;;;1.20;1.20;;;;;;;;;;5047078;28;20229;-76
2022/06/25 12:55:49;;;;;;;0.98;0.98;;;;;;;;;;5049611;28;20210;-77
2022/06/25 12:58:21;;;;;;;1.00;1.00;;;;;;;;;;5050934;28;20216;-76
2022/06/25 13:00:48;;;;;;;1.27;1.17;;;;;;;;;;5050269;28;20221;-78
2022/06/25 13:03:16;;;;;;;1.08;1.08;;;;;;;;;;5050326;28;20289;-77
2022/06/25 13:05:44;;;;;;;1.10;1.10;;;;;;;;;;5050799;28;20419;-77
2022/06/25 13:08:12;;;;;;;1.15;1.15;;;;;;;;;;5051615;28;20296;-77
2022/06/25 13:10:42;;;;;;;1.10;1.10;;;;;;;;;;5054667;28;20644;-77
2022/06/25 13:13:09;;;;;;;1.00;1.00;;;;;;;;;;5047693;28;20227;-77
2022/06/25 13:15:38;;;;;;;1.30;1.30;;;;;;;;;;5054633;28;20586;-77
2022/06/25 13:18:06;;;;;;;1.35;1.27;;;;;;;;;;5047923;28;20205;-77
2022/06/25 13:20:34;;;;;;;1.00;1.00;;;;;;;;;;5048499;28;20248;-77
2022/06/25 13:23:01;;;;;;;0.95;0.95;;;;;;;;;;5092824;23;20704;-82
2022/06/25 13:25:30;;;;;;;1.10;1.00;;;;;;;;;;5090477;28;20311;-81
2022/06/25 13:27:57;;;;;;;0.90;0.90;;;;;;;;;;5090119;28;20568;-82
2022/06/25 13:30:25;;;;;;;1.20;1.20;;;;;;;;;;5092600;28;20244;-81
2022/06/25 13:32:54;;;;;;;1.23;1.13;;;;;;;;;;5080928;28;20635;-81
2022/06/25 13:35:21;;;;;;;1.33;1.33;;;;;;;;;;5098853;23;20255;-81
2022/06/25 13:37:49;;;;;;;1.40;1.30;;;;;;;;;;5094787;28;20219;-81
2022/06/25 13:40:16;;;;;;;1.23;1.13;;;;;;;;;;5079953;28;20745;-81
2022/06/25 13:42:44;;;;;;;1.40;1.30;;;;;;;;;;5076198;28;20256;-80
2022/06/25 13:45:12;;;;;;;1.15;1.15;;;;;;;;;;5096166;28;20662;-80
2022/06/25 13:47:39;;;;;;;1.08;1.08;;;;;;;;;;5076515;28;20635;-81
2022/06/25 13:50:09;;;;;;;1.17;1.17;;;;;;;;;;5077344;28;20293;-80
2022/06/25 13:52:37;;;;;;;1.10;1.10;;;;;;;;;;5088078;28;20193;-80
2022/06/25 13:55:05;;;;;;;1.10;1.10;;;;;;;;;;5090562;28;20320;-81
2022/06/25 13:57:33;;;;;;;1.40;1.30;;;;;;;;;;5083554;28;20240;-81
2022/06/25 14:00:01;;;;;;;5.32;4.93;;;;;;;;;;5081594;28;20552;-80
2022/06/25 14:02:28;;;;;;;5.47;5.07;;;;;;;;;;5075241;28;20312;-81
2022/06/25 14:04:56;;;;;;;4.90;4.53;;;;;;;;;;5089365;28;20303;-81
2022/06/25 14:07:25;;;;;;;6.10;5.60;;;;;;;;;;5096193;28;20295;-82
2022/06/25 14:09:52;;;;;;;5.03;4.47;;;;;;;;;;5096349;28;20258;-80
2022/06/25 14:12:20;;;;;;;3.10;2.90;;;;;;;;;;5094874;28;20208;-81
2022/06/25 14:14:47;;;;;;;1.60;1.50;;;;;;;;;;5095668;28;20304;-82
2022/06/25 14:17:15;;;;;;;1.20;1.20;;;;;;;;;;5086339;28;20355;-79
2022/06/25 14:19:42;;;;;;;1.42;1.20;;;;;;;;;;5075624;28;20213;-81
2022/06/25 14:22:10;;;;;;;0.90;0.90;;;;;;;;;;5082004;28;20315;-81
2022/06/25 14:27:24;;;;;;;2.22;2.00;;;;;;;;;;5076275;28;20675;-80
2022/06/25 14:29:53;;;;;;;5.85;5.45;;;;;;;;;;5075766;28;20197;-80
2022/06/25 14:32:20;;;;;;;8.95;8.07;;;;;;;;;;5075780;28;20312;-80
2022/06/25 14:34:48;;;;;;;12.82;11.63;;;;;;;;;;5075374;28;20407;-81
2022/06/25 14:43:01;;;;;;;7.55;6.90;;;;;;;;;;5019691;28;20230;-81
2022/06/25 14:45:29;;;;;;;10.85;9.85;;;;;;;;;;5013745;28;20266;-81
2022/06/25 14:47:57;;;;;;;6.60;6.00;;;;;;;;;;5041335;28;20288;-80
2022/06/25 14:50:24;;;;;;;4.40;4.10;;;;;;;;;;5075867;28;20215;-80
2022/06/25 14:52:52;;;;;;;3.20;2.97;;;;;;;;;;5075685;28;20627;-80
2022/06/25 14:55:21;;;;;;;7.68;6.40;;;;;;;;;;5075731;28;20229;-81
2022/06/25 14:57:49;;;;;;;6.40;5.43;;;;;;;;;;5077537;28;20197;-81
2022/06/25 15:00:17;;;;;;;4.82;4.43;;;;;;;;;;5075817;28;20247;-81
2022/06/25 15:02:47;;;;;;;4.82;3.58;;;;;;;;;;5074954;28;20311;-81
2022/06/25 15:05:14;;;;;;;1.90;1.80;;;;;;;;;;5075144;28;20282;-81
2022/06/25 15:07:42;;;;;;;1.95;1.85;;;;;;;;;;5075470;28;20292;-81
2022/06/25 15:10:10;;;;;;;1.42;1.38;;;;;;;;;;5086255;28;20235;-81
2022/06/25 15:12:39;;;;;;;1.35;1.25;;;;;;;;;;5094983;28;20200;-81
2022/06/25 15:15:09;;;;;;;1.42;1.33;;;;;;;;;;5081703;28;20263;-81